createdAt,value
2024-03-06T00:01:57.245Z,102064.41
2024-03-06T00:04:44.307Z,102051.22
2024-03-06T00:07:31.610Z,102051.13
2024-03-06T00:10:18.454Z,102058.97
2024-03-06T00:13:06.116Z,102069.47
2024-03-06T00:15:53.022Z,102065.28
2024-03-06T00:18:40.005Z,102074.81
2024-03-06T00:21:27.079Z,102079.28
2024-03-06T00:24:17.781Z,102078.53
2024-03-06T00:27:05.622Z,102076.66
2024-03-06T00:29:52.600Z,102086.22
2024-03-06T00:32:39.561Z,102088.00
2024-03-06T00:35:26.339Z,102083.75
2024-03-06T00:38:14.455Z,102084.50
2024-03-06T00:41:01.735Z,102087.25
2024-03-06T00:43:48.736Z,102090.88
2024-03-06T00:46:35.969Z,102095.94
2024-03-06T00:49:23.006Z,102095.19
2024-03-06T00:52:10.536Z,102102.19
2024-03-06T00:54:57.592Z,102104.88
2024-03-06T00:57:44.455Z,102102.34
2024-03-06T01:00:31.430Z,102107.63
2024-03-06T01:03:18.261Z,102105.84
2024-03-06T01:06:05.431Z,102105.78
2024-03-06T01:08:52.374Z,102105.69
2024-03-06T01:11:39.433Z,102105.69
2024-03-06T01:14:26.385Z,102114.50
2024-03-06T01:17:13.579Z,102111.00
2024-03-06T01:20:01.361Z,102106.66
2024-03-06T01:22:48.380Z,102111.81
2024-03-06T01:25:35.350Z,102105.72
2024-03-06T01:28:22.169Z,102112.78
2024-03-06T01:31:09.078Z,102115.53
2024-03-06T01:33:55.787Z,102124.25
2024-03-06T01:36:42.832Z,102120.91
2024-03-06T01:39:29.726Z,102121.56
2024-03-06T01:42:19.169Z,102116.47
2024-03-06T01:45:07.007Z,102118.94
2024-03-06T01:47:54.148Z,102113.25
2024-03-06T01:50:42.865Z,102116.53
2024-03-06T01:53:32.710Z,102121.91
2024-03-06T01:56:19.930Z,102128.06
2024-03-06T01:59:06.925Z,102118.47
2024-03-06T02:01:55.499Z,102128.53
2024-03-06T02:04:42.580Z,102136.66
2024-03-06T02:07:30.577Z,102127.81
2024-03-06T02:10:17.676Z,102136.50
2024-03-06T02:13:04.860Z,102138.00
2024-03-06T02:15:51.790Z,102137.84
2024-03-06T02:18:38.898Z,102141.31
2024-03-06T02:21:26.490Z,102141.31
2024-03-06T02:24:14.542Z,102140.34
2024-03-06T02:27:01.526Z,102134.25
2024-03-06T02:29:48.744Z,102138.44
2024-03-06T02:32:35.666Z,102145.72
2024-03-06T02:35:22.588Z,102147.50
2024-03-06T02:38:09.675Z,102150.28
2024-03-06T02:40:56.594Z,102149.03
2024-03-06T02:43:44.321Z,102150.69
2024-03-06T02:46:31.363Z,102148.50
2024-03-06T02:49:19.546Z,102146.63
2024-03-06T02:52:06.430Z,102139.53
2024-03-06T02:54:53.257Z,102151.03
2024-03-06T02:57:40.131Z,102142.53
2024-03-06T03:00:28.592Z,102138.81
2024-03-06T03:03:15.548Z,102147.69
2024-03-06T03:06:02.769Z,102144.09
2024-03-06T03:08:49.620Z,102139.72
2024-03-06T03:11:37.010Z,102150.13
2024-03-06T03:14:24.007Z,102145.88
2024-03-06T03:17:10.959Z,102149.59
2024-03-06T03:19:57.954Z,102154.81
2024-03-06T03:22:45.029Z,102150.44
2024-03-06T03:25:32.028Z,102150.28
2024-03-06T03:28:19.031Z,102155.78
2024-03-06T03:31:07.083Z,102153.38
2024-03-06T03:33:53.948Z,102151.81
2024-03-06T03:36:41.512Z,102158.66
2024-03-06T03:39:28.695Z,102157.81
2024-03-06T03:42:15.682Z,102157.09
2024-03-06T03:45:04.290Z,102170.19
2024-03-06T03:47:51.657Z,102164.09
2024-03-06T03:50:38.748Z,102164.16
2024-03-06T03:53:25.690Z,102181.59
2024-03-06T03:56:12.632Z,102177.34
2024-03-06T03:58:59.802Z,102182.66
2024-03-06T04:01:47.966Z,102169.47
2024-03-06T04:04:35.157Z,102173.38
2024-03-06T04:07:22.108Z,102174.00
2024-03-06T04:10:12.256Z,102168.91
2024-03-06T04:13:01.135Z,102179.59
2024-03-06T04:15:48.342Z,102173.03
2024-03-06T04:18:35.670Z,102176.47
2024-03-06T04:21:23.820Z,102168.81
2024-03-06T04:24:11.186Z,102178.34
2024-03-06T04:26:58.066Z,102178.34
2024-03-06T04:29:44.963Z,102177.63
2024-03-06T04:32:31.814Z,102190.63
2024-03-06T04:35:18.863Z,102194.06
2024-03-06T04:38:06.871Z,102193.22
2024-03-06T04:40:53.817Z,102194.75
2024-03-06T04:43:40.709Z,102200.88
2024-03-06T04:46:28.020Z,102203.72
2024-03-06T04:49:14.893Z,102206.16
2024-03-06T04:52:02.459Z,102214.28
2024-03-06T04:54:49.347Z,102215.31
2024-03-06T04:57:36.239Z,102214.56
2024-03-06T05:00:23.568Z,102221.56
2024-03-06T05:58:38.283Z,102277.53
2024-03-06T06:01:25.278Z,102278.09
2024-03-06T06:04:14.697Z,102286.66
2024-03-06T06:07:01.589Z,102285.91
2024-03-06T06:09:48.589Z,102294.56
2024-03-06T06:12:35.442Z,102290.19
2024-03-06T06:15:22.397Z,102294.59
2024-03-06T06:18:09.264Z,102306.00
2024-03-06T06:20:56.343Z,102307.84
2024-03-06T06:23:44.095Z,102303.16
2024-03-06T06:26:32.020Z,102309.16
2024-03-06T06:29:20.443Z,102314.56
2024-03-06T06:32:07.798Z,102319.16
2024-03-06T06:34:54.737Z,102321.09
2024-03-06T06:37:41.781Z,102325.69
2024-03-06T06:40:29.071Z,102340.28
2024-03-06T06:43:16.569Z,102336.94
2024-03-06T06:46:06.323Z,102341.22
2024-03-06T06:48:53.314Z,102348.19
2024-03-06T06:51:40.352Z,102351.66
2024-03-06T06:54:27.310Z,102353.47
2024-03-06T06:57:14.102Z,102357.06
2024-03-06T07:00:05.501Z,102355.94
2024-03-06T07:02:52.474Z,102357.75
2024-03-06T07:05:40.051Z,102357.78
2024-03-06T07:08:27.464Z,102365.69
2024-03-06T07:11:14.630Z,102364.75
2024-03-06T07:14:01.685Z,102369.69
2024-03-06T07:16:48.599Z,102367.47
2024-03-06T07:19:35.931Z,102376.97
2024-03-06T07:22:22.863Z,102382.16
2024-03-06T07:25:10.903Z,102383.06
2024-03-06T07:27:57.798Z,102388.31
2024-03-06T07:30:44.884Z,102397.25
2024-03-06T07:33:32.566Z,102399.63
2024-03-06T07:36:20.388Z,102398.94
2024-03-06T07:39:08.540Z,102403.25
2024-03-06T07:41:55.764Z,102404.81
2024-03-06T07:44:43.164Z,102413.69
2024-03-06T07:47:30.125Z,102409.19
2024-03-06T07:50:20.454Z,102417.56
2024-03-06T07:53:07.670Z,102419.25
2024-03-06T07:55:54.492Z,102422.69
2024-03-06T07:58:41.345Z,102432.84
2024-03-06T08:01:30.174Z,102431.38
2024-03-06T08:04:18.197Z,102436.81
2024-03-06T08:07:05.333Z,102431.63
2024-03-06T08:09:52.197Z,102432.75
2024-03-06T08:12:39.040Z,102440.69
2024-03-06T08:15:25.895Z,102442.22
2024-03-06T08:18:14.564Z,102448.53
2024-03-06T08:21:02.676Z,102442.06
2024-03-06T08:23:50.562Z,102446.50
2024-03-06T08:26:37.795Z,102454.44
2024-03-06T08:29:25.086Z,102450.41
2024-03-06T08:32:12.030Z,102458.78
2024-03-06T08:34:59.301Z,102464.81
2024-03-06T08:37:46.208Z,102462.91
2024-03-06T08:40:33.607Z,102467.31
2024-03-06T08:43:21.230Z,102470.59
2024-03-06T08:46:08.265Z,102470.31
2024-03-06T08:48:55.190Z,102478.06
2024-03-06T08:51:41.994Z,102485.16
2024-03-06T08:54:28.977Z,102491.53
2024-03-06T08:57:17.166Z,102489.97
2024-03-06T09:00:05.989Z,102493.19
2024-03-06T09:02:52.984Z,102495.81
2024-03-06T09:05:40.025Z,102503.22
2024-03-06T09:08:27.028Z,102506.69
2024-03-06T09:11:14.016Z,102506.44
2024-03-06T09:14:02.673Z,102507.25
2024-03-06T09:16:51.359Z,102512.41
2024-03-06T09:19:40.791Z,102509.53
2024-03-06T09:22:27.833Z,102518.06
2024-03-06T09:25:15.932Z,102520.75
2024-03-06T09:28:06.261Z,102525.13
2024-03-06T09:30:53.215Z,102528.28
2024-03-06T09:33:41.034Z,102525.63
2024-03-06T09:36:27.946Z,102535.56
2024-03-06T09:39:18.718Z,102530.94
2024-03-06T09:42:06.065Z,102537.75
2024-03-06T09:44:53.228Z,102545.13
2024-03-06T09:47:41.536Z,102544.56
2024-03-06T09:50:30.616Z,102540.84
2024-03-06T09:53:19.780Z,102544.72
2024-03-06T09:56:07.476Z,102545.44
2024-03-06T09:58:55.166Z,102550.66
2024-03-06T10:01:48.195Z,102548.19
2024-03-06T10:04:35.812Z,102560.16
2024-03-06T10:07:22.719Z,102572.38
2024-03-06T10:10:11.310Z,102559.53
2024-03-06T10:12:58.972Z,102553.28
2024-03-06T10:16:09.736Z,102561.47
2024-03-06T10:18:56.769Z,102555.06
2024-03-06T10:21:45.698Z,102568.34
2024-03-06T10:24:32.737Z,102567.16
2024-03-06T10:27:19.739Z,102567.97
2024-03-06T10:30:12.270Z,102569.09
2024-03-06T10:32:59.630Z,102572.06
2024-03-06T10:35:49.275Z,102572.41
2024-03-06T10:38:42.780Z,102567.38
2024-03-06T10:41:34.526Z,102578.69
2024-03-06T10:44:26.990Z,102571.13
2024-03-06T10:47:16.683Z,102575.56
2024-03-06T10:50:05.876Z,102581.56
2024-03-06T10:52:56.418Z,102587.63
2024-03-06T10:55:46.651Z,102578.59
2024-03-06T10:58:34.397Z,102581.22
2024-03-06T11:01:21.699Z,102577.72
2024-03-06T11:04:09.154Z,102573.19
2024-03-06T11:06:57.487Z,102583.31
2024-03-06T11:09:44.550Z,102591.72
2024-03-06T11:12:41.438Z,102581.88
2024-03-06T11:15:28.791Z,102584.19
2024-03-06T11:18:31.296Z,102582.50
2024-03-06T11:21:21.715Z,102591.19
2024-03-06T11:24:21.004Z,102588.34
2024-03-06T11:27:08.755Z,102589.47
2024-03-06T11:30:17.729Z,102588.00
2024-03-06T11:33:06.239Z,102593.84
2024-03-06T11:36:30.460Z,102595.28
2024-03-06T11:39:18.951Z,102596.63
2024-03-06T11:42:09.706Z,102592.81
2024-03-06T11:44:57.559Z,102595.75
2024-03-06T11:47:59.218Z,102600.66
2024-03-06T11:50:47.139Z,102595.88
2024-03-06T11:53:36.495Z,102593.09
2024-03-06T11:56:23.486Z,102590.91
2024-03-06T11:59:11.085Z,102598.38
2024-03-06T12:01:59.714Z,102595.47
2024-03-06T12:04:46.687Z,102606.47
2024-03-06T12:07:35.074Z,102605.50
2024-03-06T12:10:22.054Z,102605.94
2024-03-06T12:13:09.023Z,102601.19
2024-03-06T12:15:55.971Z,102601.06
2024-03-06T12:18:43.128Z,102611.81
2024-03-06T12:21:33.118Z,102607.44
2024-03-06T12:24:20.268Z,102609.41
2024-03-06T12:27:09.107Z,102611.00
2024-03-06T12:29:56.547Z,102615.53
2024-03-06T12:32:44.168Z,102609.84
2024-03-06T12:35:31.930Z,102610.50
2024-03-06T12:38:19.254Z,102608.13
2024-03-06T12:41:07.308Z,102610.44
2024-03-06T12:43:54.677Z,102610.91
2024-03-06T12:46:41.658Z,102607.84
2024-03-06T12:49:28.566Z,102608.50
2024-03-06T12:52:15.515Z,102608.38
2024-03-06T12:55:02.530Z,102612.75
2024-03-06T12:57:50.956Z,102608.06
2024-03-06T13:00:37.859Z,102600.03
2024-03-06T13:03:24.959Z,102606.94
2024-03-06T13:06:12.217Z,102600.66
2024-03-06T13:08:59.400Z,102604.56
2024-03-06T13:11:46.417Z,102609.44
2024-03-06T13:14:33.929Z,102607.13
2024-03-06T13:17:21.623Z,102606.97
2024-03-06T13:20:15.195Z,102610.97
2024-03-06T13:23:02.602Z,102611.41
2024-03-06T13:25:49.608Z,102614.25
2024-03-06T13:28:36.576Z,102618.31
2024-03-06T13:31:23.504Z,102618.63
2024-03-06T13:34:10.370Z,102617.56
2024-03-06T13:36:57.301Z,102622.22
2024-03-06T13:39:44.228Z,102625.50
2024-03-06T13:42:31.199Z,102622.78
2024-03-06T13:45:18.258Z,102623.56
2024-03-06T13:48:14.836Z,102625.44
2024-03-06T13:51:01.834Z,102628.75
2024-03-06T13:53:49.194Z,102632.22
2024-03-06T13:56:36.271Z,102634.44
2024-03-06T13:59:23.225Z,102638.09
2024-03-06T14:02:10.254Z,102629.22
2024-03-06T14:04:57.231Z,102637.88
2024-03-06T14:07:44.395Z,102640.84
2024-03-06T14:10:34.733Z,102642.50
2024-03-06T14:13:21.701Z,102648.69
2024-03-06T14:16:08.564Z,102638.94
2024-03-06T14:18:56.921Z,102641.84
2024-03-06T14:21:43.803Z,102650.72
2024-03-06T14:24:31.279Z,102649.13
2024-03-06T14:27:18.390Z,102648.94
2024-03-06T14:30:08.455Z,102655.28
2024-03-06T14:32:55.487Z,102656.28
2024-03-06T14:35:42.633Z,102663.69
2024-03-06T14:38:29.662Z,102669.09
2024-03-06T14:41:16.918Z,102665.00
2024-03-06T14:44:03.981Z,102660.56
2024-03-06T14:46:50.990Z,102672.09
2024-03-06T14:49:37.892Z,102671.97
2024-03-06T14:52:25.102Z,102667.28
2024-03-06T14:55:12.105Z,102676.09
2024-03-06T14:57:59.180Z,102674.78
2024-03-06T15:00:46.082Z,102674.56
2024-03-06T15:03:33.311Z,102680.22
2024-03-06T15:06:20.402Z,102680.41
2024-03-06T15:09:07.310Z,102679.56
2024-03-06T15:11:54.932Z,102683.94
2024-03-06T15:14:46.674Z,102686.41
2024-03-06T15:17:34.519Z,102686.28
2024-03-06T15:20:21.680Z,102689.06
2024-03-06T15:23:08.759Z,102692.00
2024-03-06T15:25:55.900Z,102684.06
2024-03-06T15:28:42.916Z,102690.28
2024-03-06T15:31:30.110Z,102686.88
2024-03-06T15:34:17.446Z,102685.44
2024-03-06T15:37:04.899Z,102690.00
2024-03-06T15:39:52.857Z,102683.19
2024-03-06T15:42:40.023Z,102683.72
2024-03-06T15:45:27.072Z,102682.97
2024-03-06T15:48:15.002Z,102684.81
2024-03-06T15:51:02.127Z,102688.44
2024-03-06T15:53:49.112Z,102682.38
2024-03-06T15:56:36.250Z,102692.31
2024-03-06T15:59:23.775Z,102689.94
2024-03-06T16:02:11.829Z,102690.56
2024-03-06T16:04:58.731Z,102692.72
2024-03-06T16:07:51.915Z,102694.44
2024-03-06T16:10:46.702Z,102689.00
2024-03-06T16:13:33.615Z,102699.00
2024-03-06T16:16:20.512Z,102701.47
2024-03-06T16:19:07.655Z,102700.94
2024-03-06T16:21:54.801Z,102708.72
2024-03-06T16:24:41.778Z,102699.00
2024-03-06T16:27:28.699Z,102709.75
2024-03-06T16:30:15.820Z,102712.41
2024-03-06T16:33:02.956Z,102714.22
2024-03-06T16:35:50.100Z,102719.56
2024-03-06T16:38:37.607Z,102717.13
2024-03-06T16:41:24.644Z,102715.28
2024-03-06T16:44:12.697Z,102722.78
2024-03-06T16:46:59.652Z,102735.63
2024-03-06T16:49:46.830Z,102734.06
2024-03-06T16:52:35.108Z,102730.50
2024-03-06T16:55:22.912Z,102727.25
2024-03-06T16:58:11.201Z,102740.44
2024-03-06T17:00:58.157Z,102744.03
2024-03-06T17:03:46.709Z,102744.03
2024-03-06T17:06:34.040Z,102741.31
2024-03-06T17:09:21.071Z,102751.16
2024-03-06T17:12:09.448Z,102747.81
2024-03-06T17:14:56.510Z,102746.94
2024-03-06T17:17:43.700Z,102753.41
2024-03-06T17:20:30.730Z,102750.81
2024-03-06T17:23:18.876Z,102758.88
2024-03-06T17:26:06.307Z,102754.63
2024-03-06T17:28:54.417Z,102757.34
2024-03-06T17:31:43.216Z,102762.72
2024-03-06T17:34:32.151Z,102765.66
2024-03-06T17:37:19.558Z,102777.22
2024-03-06T17:40:07.066Z,102772.78
2024-03-06T17:42:54.043Z,102780.19
2024-03-06T17:45:41.180Z,102784.56
2024-03-06T17:48:28.397Z,102777.69
2024-03-06T17:51:15.994Z,102788.25
2024-03-06T17:54:04.445Z,102790.16
2024-03-06T17:56:52.002Z,102786.84
2024-03-06T17:59:39.818Z,102797.44
2024-03-06T18:02:26.966Z,102799.41
2024-03-06T18:05:15.262Z,102802.00
2024-03-06T18:08:02.344Z,102802.13
2024-03-06T18:10:49.349Z,102801.50
2024-03-06T18:13:36.340Z,102814.88
2024-03-06T18:16:23.248Z,102816.59
2024-03-06T18:19:10.302Z,102815.91
2024-03-06T18:21:57.357Z,102816.19
2024-03-06T18:24:45.207Z,102821.34
2024-03-06T18:27:33.105Z,102823.84
2024-03-06T18:30:20.064Z,102819.59
2024-03-06T18:33:07.161Z,102824.31
2024-03-06T18:35:54.129Z,102837.56
2024-03-06T18:38:41.143Z,102827.69
2024-03-06T18:41:28.193Z,102842.75
2024-03-06T18:44:15.271Z,102830.50
2024-03-06T18:47:02.368Z,102840.13
2024-03-06T18:49:49.283Z,102841.31
2024-03-06T18:52:36.172Z,102843.25
2024-03-06T18:55:23.110Z,102843.28
2024-03-06T18:58:10.103Z,102846.09
2024-03-06T19:00:57.166Z,102846.09
2024-03-06T19:03:44.145Z,102854.13
2024-03-06T19:06:31.078Z,102855.00
2024-03-06T19:09:20.100Z,102850.00
2024-03-06T19:12:07.603Z,102856.09
2024-03-06T19:14:54.580Z,102855.41
2024-03-06T19:17:41.623Z,102855.31
2024-03-06T19:20:28.732Z,102863.41
2024-03-06T19:23:15.780Z,102865.22
2024-03-06T19:26:02.805Z,102857.47
2024-03-06T19:28:50.120Z,102858.38
2024-03-06T19:31:37.046Z,102860.34
2024-03-06T19:34:24.412Z,102861.13
2024-03-06T19:37:11.576Z,102858.41
2024-03-06T19:39:58.495Z,102864.78
2024-03-06T19:42:48.523Z,102864.91
2024-03-06T19:45:35.439Z,102870.31
2024-03-06T19:48:22.471Z,102871.19
2024-03-06T19:51:09.455Z,102870.25
2024-03-06T19:53:57.264Z,102873.09
2024-03-06T19:56:44.323Z,102872.50
2024-03-06T19:59:31.425Z,102877.63
2024-03-06T20:02:19.699Z,102872.44
2024-03-06T20:05:07.983Z,102876.03
2024-03-06T20:07:55.102Z,102881.38
2024-03-06T20:10:42.833Z,102883.16
2024-03-06T20:13:29.824Z,102886.75
2024-03-06T20:16:16.771Z,102882.56
2024-03-06T20:19:04.056Z,102891.50
2024-03-06T20:21:51.176Z,102886.19
2024-03-06T20:24:38.595Z,102884.56
2024-03-06T20:27:27.315Z,102880.16
2024-03-06T20:30:14.383Z,102891.72
2024-03-06T20:33:02.350Z,102891.75
2024-03-06T20:35:49.933Z,102887.59
2024-03-06T20:38:37.082Z,102882.22
2024-03-06T20:41:24.109Z,102880.50
2024-03-06T20:44:12.444Z,102890.03
2024-03-06T20:46:59.761Z,102893.50
2024-03-06T20:49:46.732Z,102890.97
2024-03-06T20:52:33.859Z,102889.31
2024-03-06T20:55:20.889Z,102892.75
2024-03-06T20:58:07.803Z,102885.81
2024-03-06T21:00:56.394Z,102884.25
2024-03-06T21:03:43.381Z,102873.84
2024-03-06T21:06:30.278Z,102885.25
2024-03-06T21:09:18.258Z,102886.19
2024-03-06T21:12:07.673Z,102882.91
2024-03-06T21:14:59.293Z,102885.44
2024-03-06T21:17:46.372Z,102886.34
2024-03-06T21:20:34.591Z,102891.50
2024-03-06T21:23:22.742Z,102882.81
2024-03-06T21:26:09.670Z,102883.81
2024-03-06T21:28:56.617Z,102881.16
2024-03-06T21:31:45.209Z,102887.47
2024-03-06T21:34:32.190Z,102888.41
2024-03-06T21:37:19.328Z,102898.94
2024-03-06T21:40:14.523Z,102899.84
2024-03-06T21:43:04.718Z,102886.50
2024-03-06T21:45:51.826Z,102879.66
2024-03-06T21:48:38.880Z,102898.97
2024-03-06T21:51:26.030Z,102896.38
2024-03-06T21:54:12.987Z,102900.88
2024-03-06T21:56:59.988Z,102899.78
2024-03-06T21:59:47.250Z,102896.47
2024-03-06T22:02:34.276Z,102899.25
2024-03-06T22:05:21.468Z,102911.56
2024-03-06T22:08:09.876Z,102906.31
2024-03-06T22:10:57.012Z,102910.84
2024-03-06T22:13:43.922Z,102913.38
2024-03-06T22:16:30.721Z,102914.28
2024-03-06T22:19:19.797Z,102904.56
2024-03-06T22:22:07.736Z,102909.03
2024-03-06T22:24:54.667Z,102902.03
2024-03-06T22:27:41.455Z,102912.84
2024-03-06T22:30:28.412Z,102918.94
2024-03-06T22:33:15.347Z,102910.25
2024-03-06T22:36:02.850Z,102917.28
2024-03-06T22:38:50.735Z,102911.16
2024-03-06T22:41:37.781Z,102916.56
2024-03-06T22:44:24.710Z,102919.34
2024-03-06T22:47:11.572Z,102919.31
2024-03-06T22:49:58.491Z,102916.63
2024-03-06T22:52:45.296Z,102927.25
2024-03-06T22:55:33.628Z,102923.66
2024-03-06T22:58:20.669Z,102916.66
2024-03-06T23:01:07.922Z,102920.28
2024-03-06T23:03:54.803Z,102921.25
2024-03-06T23:06:43.701Z,102920.31
2024-03-06T23:09:30.618Z,102916.97
2024-03-06T23:12:20.756Z,102920.50
2024-03-06T23:15:09.146Z,102914.47
2024-03-06T23:17:56.709Z,102914.59
2024-03-06T23:20:43.834Z,102919.94
2024-03-06T23:23:31.035Z,102926.94
2024-03-06T23:26:17.997Z,102926.16
2024-03-06T23:29:05.019Z,102930.53
2024-03-06T23:31:51.932Z,102929.72
2024-03-06T23:34:38.900Z,102931.50
2024-03-06T23:37:25.749Z,102932.41
2024-03-06T23:40:16.988Z,102936.91
2024-03-06T23:43:04.778Z,102932.56
2024-03-06T23:45:51.807Z,102930.91
2024-03-06T23:48:38.674Z,102936.19
2024-03-06T23:51:25.612Z,102931.84
2024-03-06T23:54:12.556Z,102946.78
2024-03-06T23:56:59.557Z,102937.16
2024-03-06T23:59:46.748Z,102937.19
